Time;durP1;ratioP1;P1;durP2;ratioP2;P2;SDS_P1;SDS_P2;PMS_P1;PMS_P2;Temp;Humidity;BMP_temperature;BMP_pressure;BME280_temperature;BME280_humidity;BME280_pressure;Samples;Min_cycle;Max_cycle;Signal;HPM_P1;HPM_P2
2022/10/19 00:00:17;;;;;;;0.00;0.00;;;9.90;99.90;;;;;;4800112;29;20053;-88
2022/10/19 00:02:43;;;;;;;0.73;0.20;;;9.90;99.90;;;;;;4842012;29;20498;-88
2022/10/19 00:05:09;;;;;;;0.03;0.00;;;10.10;99.90;;;;;;4807412;29;20093;-88
2022/10/19 00:47:27;;;;;;;0.03;0.03;;;10.00;99.90;;;;;;5078513;23;20043;-89
2022/10/19 00:50:00;;;;;;;0.00;0.00;;;10.00;99.90;;;;;;4826134;29;20053;-89
2022/10/19 00:52:30;;;;;;;0.25;0.10;;;10.10;99.90;;;;;;4813654;29;20056;-90
2022/10/19 00:54:57;;;;;;;0.10;0.10;;;10.10;99.90;;;;;;4828676;29;20050;-89
2022/10/19 00:57:27;;;;;;;0.10;0.10;;;10.10;99.90;;;;;;4843458;29;20056;-89
2022/10/19 00:59:57;;;;;;;0.20;0.20;;;10.10;99.90;;;;;;4843507;29;20553;-89
2022/10/19 01:02:23;;;;;;;0.10;0.10;;;10.10;99.90;;;;;;4812664;29;20133;-89
2022/10/19 01:04:51;;;;;;;0.00;0.00;;;10.10;99.90;;;;;;4813145;29;20092;-89
2022/10/19 01:07:18;;;;;;;0.00;0.00;;;10.20;99.90;;;;;;4830447;29;20061;-89
2022/10/19 01:09:44;;;;;;;0.10;0.10;;;10.20;99.90;;;;;;4831418;29;20121;-89
2022/10/19 01:12:26;;;;;;;0.35;0.35;;;10.20;99.90;;;;;;4831840;29;20053;-89
2022/10/19 01:15:19;;;;;;;0.00;0.00;;;10.20;99.90;;;;;;4831263;29;20081;-89
2022/10/19 01:17:51;;;;;;;0.22;0.22;;;10.30;99.90;;;;;;4831675;29;20144;-90
2022/10/19 01:20:23;;;;;;;0.10;0.10;;;10.20;99.90;;;;;;4830303;29;20117;-89
2022/10/19 01:23:33;;;;;;;0.10;0.00;;;10.30;99.90;;;;;;4831489;29;20097;-90
2022/10/19 01:26:23;;;;;;;0.10;0.10;;;10.20;99.90;;;;;;4830273;29;20064;-88
2022/10/19 01:28:52;;;;;;;0.10;0.10;;;10.30;99.90;;;;;;4831704;29;20050;-89
2022/10/19 01:31:24;;;;;;;0.00;0.00;;;10.30;99.90;;;;;;4830543;29;20420;-88
2022/10/19 01:33:59;;;;;;;0.00;0.00;;;10.30;99.90;;;;;;4846858;29;20050;-89
2022/10/19 01:36:40;;;;;;;0.00;0.00;;;10.30;99.90;;;;;;4830597;29;20050;-89
2022/10/19 01:39:12;;;;;;;0.00;0.00;;;10.20;99.90;;;;;;4831295;29;20053;-89
2022/10/19 01:41:43;;;;;;;0.08;0.08;;;10.40;99.90;;;;;;4830668;29;20050;-89
2022/10/19 01:44:15;;;;;;;0.10;0.10;;;10.30;99.90;;;;;;4831295;29;20063;-89
2022/10/19 01:46:49;;;;;;;0.00;0.00;;;9.40;99.90;;;;;;4830524;29;20189;-89
2022/10/19 01:49:23;;;;;;;0.10;0.10;;;10.30;99.90;;;;;;4830410;29;20068;-89
2022/10/19 01:51:54;;;;;;;0.88;0.30;;;10.30;99.90;;;;;;4830614;29;20493;-89
2022/10/19 01:54:21;;;;;;;0.10;0.10;;;10.40;99.90;;;;;;4830996;29;20509;-88
2022/10/19 01:56:49;;;;;;;0.00;0.00;;;10.30;99.90;;;;;;4830433;29;20053;-89
2022/10/19 01:59:17;;;;;;;0.10;0.03;;;9.30;99.90;;;;;;4830986;29;20120;-89
2022/10/19 02:01:48;;;;;;;0.15;0.00;;;10.50;99.90;;;;;;4845756;29;20049;-89
2022/10/19 02:04:17;;;;;;;0.22;0.22;;;10.50;99.90;;;;;;4830591;29;20053;-89
2022/10/19 02:06:43;;;;;;;0.40;0.20;;;10.40;99.90;;;;;;4830261;29;20049;-89
2022/10/19 02:09:16;;;;;;;0.10;0.10;;;10.40;99.90;;;;;;4830423;29;20049;-89
2022/10/19 02:11:48;;;;;;;0.10;0.03;;;10.50;99.90;;;;;;4830151;29;20049;-89
2022/10/19 02:14:16;;;;;;;0.15;0.15;;;10.50;99.90;;;;;;4846373;29;20045;-89
2022/10/19 02:17:14;;;;;;;0.00;0.00;;;10.40;99.90;;;;;;4830567;29;20095;-89
2022/10/19 02:19:40;;;;;;;0.10;0.10;;;10.40;99.90;;;;;;4844040;29;20140;-89
2022/10/19 02:22:07;;;;;;;0.00;0.00;;;10.50;99.90;;;;;;4829250;29;20049;-89
2022/10/19 02:24:33;;;;;;;0.05;0.05;;;10.50;99.90;;;;;;4845099;29;20049;-89
2022/10/19 02:27:03;;;;;;;0.73;0.07;;;10.50;99.90;;;;;;4830761;29;20053;-89
2022/10/19 02:29:30;;;;;;;0.00;0.00;;;10.50;99.90;;;;;;4830493;29;20100;-88
2022/10/19 02:31:56;;;;;;;;;;;10.40;99.90;;;;;;4831436;29;20423;-89
2022/10/19 02:34:24;;;;;;;0.10;0.10;;;10.50;99.90;;;;;;4830750;29;20027;-89
2022/10/19 02:36:50;;;;;;;0.00;0.00;;;10.40;99.90;;;;;;4845334;29;20054;-89
2022/10/19 02:39:18;;;;;;;0.00;0.00;;;10.50;99.90;;;;;;4815510;29;20053;-89
2022/10/19 02:42:03;;;;;;;0.00;0.00;;;10.40;99.90;;;;;;4830367;29;20078;-89
2022/10/19 02:44:30;;;;;;;0.20;0.00;;;10.50;99.90;;;;;;4830057;29;20144;-88
2022/10/19 02:47:14;;;;;;;0.00;0.00;;;10.50;99.90;;;;;;4845666;29;20105;-89
2022/10/19 02:49:41;;;;;;;0.43;0.00;;;10.50;99.90;;;;;;4844278;29;20140;-88
2022/10/19 02:52:11;;;;;;;0.10;0.10;;;10.40;99.90;;;;;;4830237;29;20240;-89
2022/10/19 02:54:42;;;;;;;0.15;0.15;;;10.50;99.90;;;;;;4829051;29;20061;-89
2022/10/19 02:57:20;;;;;;;0.52;0.52;;;10.50;99.90;;;;;;4830295;29;20382;-89
2022/10/19 02:59:46;;;;;;;0.00;0.00;;;10.60;99.90;;;;;;4815199;29;20053;-89
2022/10/19 03:02:13;;;;;;;0.10;0.00;;;10.60;99.90;;;;;;4844995;29;20085;-89
2022/10/19 03:04:47;;;;;;;0.00;0.00;;;10.60;99.90;;;;;;4829696;29;20465;-89
2022/10/19 03:07:15;;;;;;;0.20;0.00;;;10.40;99.90;;;;;;4845766;29;20136;-89
2022/10/19 03:09:42;;;;;;;0.00;0.00;;;10.60;99.90;;;;;;4844863;29;20374;-88
2022/10/19 03:12:08;;;;;;;0.10;0.10;;;10.50;99.90;;;;;;4829934;29;20042;-88
2022/10/19 03:14:33;;;;;;;0.00;0.00;;;10.50;99.90;;;;;;4829547;29;20496;-88
2022/10/19 03:17:02;;;;;;;0.00;0.00;;;10.50;99.90;;;;;;4845036;29;20051;-88
2022/10/19 03:19:27;;;;;;;0.00;0.00;;;10.50;99.90;;;;;;4829125;29;20061;-88
2022/10/19 03:21:53;;;;;;;0.30;0.00;;;10.40;99.90;;;;;;4828801;29;20086;-89
2022/10/19 03:24:19;;;;;;;0.03;0.00;;;10.30;99.90;;;;;;4829646;29;20060;-88
2022/10/19 03:26:45;;;;;;;0.00;0.00;;;10.30;99.90;;;;;;4828767;29;20052;-88
2022/10/19 03:29:11;;;;;;;0.30;0.20;;;10.30;99.90;;;;;;4829290;29;20106;-89
2022/10/19 03:31:36;;;;;;;0.00;0.00;;;10.30;99.90;;;;;;4813314;29;20132;-88
2022/10/19 03:34:02;;;;;;;0.00;0.00;;;10.30;99.90;;;;;;4829646;29;20096;-88
2022/10/19 03:36:31;;;;;;;0.10;0.05;;;10.20;99.90;;;;;;4829268;29;20057;-88
2022/10/19 03:38:59;;;;;;;0.05;0.05;;;10.20;99.90;;;;;;4828632;29;20525;-88
2022/10/19 03:41:30;;;;;;;0.00;0.00;;;10.20;99.90;;;;;;4829075;29;20041;-89
2022/10/19 03:43:56;;;;;;;0.03;0.03;;;10.20;99.90;;;;;;4828786;29;20121;-88
2022/10/19 03:46:22;;;;;;;0.00;0.00;;;10.10;99.90;;;;;;4829340;29;20517;-88
2022/10/19 03:48:49;;;;;;;0.00;0.00;;;10.20;99.90;;;;;;4828725;29;20072;-88
2022/10/19 03:51:18;;;;;;;0.00;0.00;;;10.20;99.90;;;;;;4814110;29;20068;-88
2022/10/19 03:53:47;;;;;;;0.00;0.00;;;10.10;99.90;;;;;;4827940;29;20563;-90
2022/10/19 03:56:15;;;;;;;0.10;0.10;;;10.20;99.90;;;;;;4828475;29;20460;-89
2022/10/19 03:58:43;;;;;;;0.00;0.00;;;9.10;99.90;;;;;;4827699;29;20512;-89
2022/10/19 04:01:19;;;;;;;0.08;0.00;;;10.10;99.90;;;;;;4828725;29;20132;-89
2022/10/19 04:03:45;;;;;;;0.00;0.00;;;10.00;99.90;;;;;;4843897;29;20457;-89
2022/10/19 04:06:14;;;;;;;0.00;0.00;;;10.00;99.90;;;;;;4844353;29;20055;-88
2022/10/19 04:08:40;;;;;;;0.00;0.00;;;10.00;99.90;;;;;;4827640;29;20573;-88
2022/10/19 04:11:10;;;;;;;0.00;0.00;;;9.90;99.90;;;;;;4829296;29;20132;-88
2022/10/19 04:13:38;;;;;;;0.00;0.00;;;9.90;99.90;;;;;;4829228;29;20057;-88
2022/10/19 04:16:08;;;;;;;0.00;0.00;;;9.90;99.90;;;;;;4813036;29;20060;-88
2022/10/19 04:18:33;;;;;;;0.00;0.00;;;9.80;99.90;;;;;;4828702;29;20057;-88
2022/10/19 04:21:04;;;;;;;0.00;0.00;;;9.70;99.90;;;;;;4828233;29;20496;-88
2022/10/19 04:23:33;;;;;;;0.00;0.00;;;8.80;99.90;;;;;;4843962;29;20046;-89
2022/10/19 04:26:04;;;;;;;0.00;0.00;;;9.60;99.90;;;;;;4828991;29;20332;-88
2022/10/19 04:28:31;;;;;;;0.00;0.00;;;9.60;99.90;;;;;;4828944;29;20144;-88
2022/10/19 04:31:00;;;;;;;0.00;0.00;;;9.60;99.90;;;;;;4828676;29;20089;-88
2022/10/19 04:33:25;;;;;;;0.00;0.00;;;9.50;99.90;;;;;;4829034;29;20378;-89
2022/10/19 04:35:57;;;;;;;0.00;0.00;;;9.50;99.90;;;;;;4828708;29;20052;-88
2022/10/19 04:38:23;;;;;;;1.85;0.10;;;9.40;99.90;;;;;;4814288;29;20141;-89
2022/10/19 04:40:49;;;;;;;0.10;0.10;;;9.40;99.90;;;;;;4798769;29;20165;-87
2022/10/19 04:43:14;;;;;;;0.00;0.00;;;9.40;99.90;;;;;;4832311;29;20049;-88
2022/10/19 04:45:40;;;;;;;0.00;0.00;;;9.40;99.90;;;;;;4802428;29;20063;-88
2022/10/19 04:48:06;;;;;;;0.00;0.00;;;9.30;99.90;;;;;;4816779;29;20453;-88
2022/10/19 04:50:32;;;;;;;0.20;0.20;;;9.30;99.90;;;;;;4817043;29;20554;-88
2022/10/19 04:52:58;;;;;;;0.17;0.10;;;9.30;99.90;;;;;;4831836;29;20402;-89
2022/10/19 04:55:23;;;;;;;0.00;0.00;;;9.30;99.90;;;;;;4832125;29;20404;-88
2022/10/19 04:57:51;;;;;;;0.20;0.10;;;9.20;99.90;;;;;;4831975;29;20374;-88
2022/10/19 05:00:19;;;;;;;0.10;0.08;;;9.20;99.90;;;;;;4832012;29;20057;-88
2022/10/19 05:02:46;;;;;;;0.10;0.10;;;9.20;99.90;;;;;;4831695;29;20136;-88
2022/10/19 05:05:13;;;;;;;0.00;0.00;;;9.20;99.90;;;;;;4831749;29;20144;-88
2022/10/19 05:07:39;;;;;;;0.00;0.00;;;9.20;99.90;;;;;;4816323;29;20057;-89
2022/10/19 05:10:09;;;;;;;0.10;0.10;;;9.20;99.90;;;;;;4831528;29;20081;-88
2022/10/19 05:12:35;;;;;;;0.20;0.20;;;9.20;99.90;;;;;;4831880;29;20105;-88
2022/10/19 05:15:01;;;;;;;0.00;0.00;;;9.30;99.90;;;;;;4816617;29;20053;-88
2022/10/19 05:17:32;;;;;;;0.00;0.00;;;9.30;99.90;;;;;;4831839;29;20061;-88
2022/10/19 05:19:57;;;;;;;0.00;0.00;;;9.20;99.90;;;;;;4831156;29;20049;-89
2022/10/19 05:22:24;;;;;;;0.00;0.00;;;9.20;99.90;;;;;;4815957;29;20512;-88
2022/10/19 05:24:49;;;;;;;0.73;0.00;;;9.20;99.90;;;;;;4816282;29;20081;-88
2022/10/19 05:27:15;;;;;;;0.10;0.10;;;9.20;99.90;;;;;;4831748;29;20057;-88
2022/10/19 05:29:41;;;;;;;0.67;0.20;;;9.20;99.90;;;;;;4831536;29;20053;-88
2022/10/19 05:32:07;;;;;;;0.20;0.10;;;9.20;99.90;;;;;;4815944;29;20041;-88
2022/10/19 05:34:32;;;;;;;0.00;0.00;;;9.20;99.90;;;;;;4816331;29;20060;-89
2022/10/19 05:37:04;;;;;;;0.00;0.00;;;9.20;99.90;;;;;;4831304;29;20053;-88
2022/10/19 05:39:30;;;;;;;0.00;0.00;;;9.20;99.90;;;;;;4831546;29;20488;-88
2022/10/19 05:41:56;;;;;;;0.20;0.10;;;9.10;99.90;;;;;;4830488;29;20077;-88
2022/10/19 05:44:22;;;;;;;0.00;0.00;;;9.10;99.90;;;;;;4816302;29;20057;-89
2022/10/19 05:46:50;;;;;;;0.00;0.00;;;9.10;99.90;;;;;;4831464;29;20116;-89
2022/10/19 05:49:18;;;;;;;0.10;0.10;;;9.10;99.90;;;;;;4830384;29;20205;-88
2022/10/19 05:51:44;;;;;;;0.03;0.03;;;9.10;99.90;;;;;;4830874;29;20096;-87
2022/10/19 05:54:11;;;;;;;0.43;0.20;;;9.20;99.90;;;;;;4829138;29;20045;-88
2022/10/19 05:56:38;;;;;;;0.00;0.00;;;9.20;99.90;;;;;;4830806;29;20056;-88
2022/10/19 05:59:05;;;;;;;0.20;0.20;;;9.10;99.90;;;;;;4830277;29;20068;-88
2022/10/19 06:01:34;;;;;;;0.00;0.00;;;9.10;99.90;;;;;;4830411;29;20045;-88
2022/10/19 06:04:01;;;;;;;0.00;0.00;;;9.10;99.90;;;;;;4830435;29;20052;-88
2022/10/19 06:06:27;;;;;;;0.10;0.10;;;9.20;99.90;;;;;;4845918;29;20049;-89
2022/10/19 06:09:02;;;;;;;0.00;0.00;;;9.20;99.90;;;;;;4832002;29;20094;-93
2022/10/19 06:11:33;;;;;;;0.00;0.00;;;10.00;99.90;;;;;;4846424;29;20564;-93
2022/10/19 06:14:01;;;;;;;0.00;0.00;;;9.20;99.90;;;;;;4846861;29;20045;-93
2022/10/19 06:16:31;;;;;;;0.00;0.00;;;9.30;99.90;;;;;;4846999;29;20577;-92
2022/10/19 06:19:00;;;;;;;0.00;0.00;;;9.20;99.90;;;;;;4831491;29;20073;-92
2022/10/19 06:21:28;;;;;;;0.00;0.00;;;9.20;99.90;;;;;;4831894;29;20128;-92
2022/10/19 06:23:57;;;;;;;0.00;0.00;;;9.20;99.90;;;;;;4830917;29;20053;-90
2022/10/19 06:26:26;;;;;;;0.17;0.00;;;9.30;99.90;;;;;;4831032;29;20493;-90
2022/10/19 06:28:59;;;;;;;0.13;0.10;;;9.20;99.90;;;;;;4846203;29;20405;-93
2022/10/19 06:31:28;;;;;;;0.00;0.00;;;9.40;99.90;;;;;;4830243;29;20056;-86
2022/10/19 06:33:54;;;;;;;0.00;0.00;;;9.20;99.90;;;;;;4845352;29;20053;-89
2022/10/19 06:36:23;;;;;;;0.00;0.00;;;9.30;99.90;;;;;;4845210;29;20136;-87
2022/10/19 06:38:49;;;;;;;0.10;0.10;;;9.40;99.90;;;;;;4845404;29;20061;-93
2022/10/19 06:41:43;;;;;;;0.00;0.00;;;9.40;99.90;;;;;;4845709;29;20046;-89
2022/10/19 06:47:35;;;;;;;0.00;0.00;;;9.40;99.90;;;;;;4846302;29;20197;-92
2022/10/19 06:50:10;;;;;;;0.00;0.00;;;9.40;99.90;;;;;;4816864;29;20065;-90
2022/10/19 06:52:40;;;;;;;0.00;0.00;;;9.50;99.90;;;;;;4830036;29;20549;-90
2022/10/19 06:55:19;;;;;;;0.00;0.00;;;9.30;99.90;;;;;;4815513;29;20046;-90
2022/10/19 06:57:47;;;;;;;0.00;0.00;;;9.50;99.90;;;;;;4815757;29;20131;-90
2022/10/19 07:00:18;;;;;;;0.00;0.00;;;9.60;99.90;;;;;;4815315;29;20053;-90
2022/10/19 07:03:06;;;;;;;0.15;0.10;;;9.60;99.90;;;;;;4830869;29;20045;-90
2022/10/19 07:05:37;;;;;;;0.00;0.00;;;9.60;99.90;;;;;;4815720;29;20514;-90
2022/10/19 07:08:35;;;;;;;0.00;0.00;;;9.70;99.90;;;;;;4800074;29;20121;-90
2022/10/19 07:14:03;;;;;;;0.28;0.28;;;9.80;99.90;;;;;;4845615;29;20501;-90
2022/10/19 07:19:51;;;;;;;0.60;0.60;;;9.90;99.90;;;;;;4826973;29;20057;-90
2022/10/19 07:22:53;;;;;;;;;;;;;;;;;;;;;
2022/10/19 07:25:29;;;;;;;;;;;;;;;;;;;;;
2022/10/19 07:28:05;;;;;;;0.30;0.10;;;10.10;99.90;;;;;;4845007;29;20064;-92
2022/10/19 07:31:01;;;;;;;0.00;0.00;;;10.10;99.90;;;;;;4830989;29;20041;-91
2022/10/19 07:34:05;;;;;;;;;;;;;;;;;;;;;
2022/10/19 07:36:43;;;;;;;0.10;0.10;;;10.20;99.90;;;;;;4829559;29;20084;-89
2022/10/19 07:39:19;;;;;;;1.08;0.10;;;10.30;99.90;;;;;;4830976;29;20069;-93
2022/10/19 07:41:50;;;;;;;0.08;0.00;;;10.30;99.90;;;;;;4817616;29;20049;-89
2022/10/19 07:44:43;;;;;;;0.10;0.10;;;10.40;99.90;;;;;;4819961;29;20485;-90
2022/10/19 07:47:23;;;;;;;0.03;0.00;;;10.40;99.90;;;;;;4831674;29;20061;-92
2022/10/19 07:49:49;;;;;;;0.10;0.10;;;10.40;99.90;;;;;;4829641;29;20121;-86
2022/10/19 07:52:14;;;;;;;0.00;0.00;;;10.50;99.90;;;;;;4814799;29;20053;-85
2022/10/19 07:54:40;;;;;;;0.00;0.00;;;10.50;99.90;;;;;;4830135;29;20052;-85
2022/10/19 07:57:06;;;;;;;0.13;0.10;;;10.60;99.90;;;;;;4829009;29;20045;-91
2022/10/19 07:59:32;;;;;;;0.10;0.10;;;10.60;99.90;;;;;;4845077;29;20053;-85
2022/10/19 08:02:01;;;;;;;0.10;0.10;;;10.60;99.90;;;;;;4844251;29;20057;-84
2022/10/19 08:04:27;;;;;;;0.00;0.00;;;10.70;99.90;;;;;;4829256;29;20664;-83
2022/10/19 08:06:52;;;;;;;0.30;0.00;;;10.70;99.90;;;;;;4844232;29;20136;-82
2022/10/19 08:09:18;;;;;;;0.00;0.00;;;10.50;99.90;;;;;;4813697;29;20057;-86
2022/10/19 08:11:44;;;;;;;0.00;0.00;;;10.80;99.90;;;;;;4845133;29;20140;-86
2022/10/19 08:14:10;;;;;;;0.00;0.00;;;10.80;99.90;;;;;;4829434;29;20132;-87
2022/10/19 08:16:39;;;;;;;0.00;0.00;;;10.80;99.90;;;;;;4828651;29;20113;-86
2022/10/19 08:19:12;;;;;;;0.00;0.00;;;10.90;99.90;;;;;;4844486;29;20061;-86
2022/10/19 08:21:40;;;;;;;0.00;0.00;;;11.00;99.90;;;;;;4844462;29;20049;-86
2022/10/19 08:24:06;;;;;;;0.15;0.00;;;10.90;99.90;;;;;;4844137;29;20045;-86
2022/10/19 08:26:36;;;;;;;1.50;0.10;;;11.00;99.90;;;;;;4844079;29;20501;-86
2022/10/19 08:29:05;;;;;;;0.00;0.00;;;11.00;99.90;;;;;;4829363;29;20535;-86
2022/10/19 08:31:31;;;;;;;0.00;0.00;;;11.10;99.90;;;;;;4828921;29;20508;-86
2022/10/19 08:33:57;;;;;;;0.03;0.00;;;11.10;99.90;;;;;;4829424;29;20053;-86
2022/10/19 08:36:23;;;;;;;0.33;0.00;;;11.20;99.90;;;;;;4828838;29;20413;-85
2022/10/19 08:38:49;;;;;;;0.00;0.00;;;11.20;99.90;;;;;;4813937;29;20485;-85
2022/10/19 08:41:36;;;;;;;0.00;0.00;;;11.20;99.90;;;;;;4843885;29;20580;-86
2022/10/19 08:44:23;;;;;;;0.10;0.10;;;11.30;99.90;;;;;;4844473;29;20471;-86
2022/10/19 08:47:11;;;;;;;0.00;0.00;;;11.40;99.90;;;;;;4829053;29;20401;-86
2022/10/19 08:49:37;;;;;;;0.00;0.00;;;11.40;99.90;;;;;;4828332;29;20096;-86
2022/10/19 08:52:26;;;;;;;0.00;0.00;;;11.50;99.90;;;;;;4813875;29;20097;-86
2022/10/19 08:54:53;;;;;;;0.05;0.05;;;11.50;99.90;;;;;;4829031;29;20645;-86
2022/10/19 08:57:40;;;;;;;;;;;11.60;99.90;;;;;;4844248;29;20133;-86
2022/10/19 09:00:23;;;;;;;0.20;0.10;;;11.60;99.90;;;;;;4829089;29;19976;-86
2022/10/19 09:02:54;;;;;;;0.00;0.00;;;11.60;99.90;;;;;;4843900;29;20049;-86
2022/10/19 09:05:34;;;;;;;0.00;0.00;;;11.70;99.90;;;;;;4828528;29;20054;-86
2022/10/19 09:08:01;;;;;;;0.63;0.10;;;11.70;99.90;;;;;;4844120;29;20101;-86
2022/10/19 09:10:39;;;;;;;0.00;0.00;;;11.70;99.90;;;;;;4813635;29;20049;-86
2022/10/19 09:13:31;;;;;;;0.00;0.00;;;11.80;99.90;;;;;;4844205;29;20405;-86
2022/10/19 09:15:56;;;;;;;0.10;0.08;;;11.90;99.90;;;;;;4823335;29;20061;-85
2022/10/19 09:18:31;;;;;;;0.00;0.00;;;11.90;99.90;;;;;;4813247;29;20053;-86
2022/10/19 09:21:10;;;;;;;0.00;0.00;;;11.90;99.90;;;;;;4828690;29;20481;-86
2022/10/19 09:23:37;;;;;;;0.08;0.08;;;12.00;99.90;;;;;;4843457;29;20450;-86
2022/10/19 09:26:09;;;;;;;0.20;0.00;;;12.00;99.90;;;;;;4843950;29;20061;-86
2022/10/19 09:28:51;;;;;;;0.00;0.00;;;12.00;99.90;;;;;;4830854;29;20489;-86
2022/10/19 09:31:33;;;;;;;0.00;0.00;;;12.00;99.90;;;;;;4831926;29;20056;-86
2022/10/19 09:34:05;;;;;;;0.03;0.03;;;12.10;99.90;;;;;;4831818;29;20057;-86
2022/10/19 09:36:44;;;;;;;0.00;0.00;;;12.10;99.90;;;;;;4831500;29;20049;-86
2022/10/19 09:39:13;;;;;;;0.00;0.00;;;12.00;99.90;;;;;;4847064;29;20497;-86
2022/10/19 09:41:50;;;;;;;0.00;0.00;;;12.00;99.90;;;;;;4831295;29;20206;-86
2022/10/19 09:44:16;;;;;;;0.05;0.05;;;12.00;99.90;;;;;;4831626;29;20053;-86
2022/10/19 09:46:54;;;;;;;0.10;0.10;;;12.00;99.90;;;;;;4831010;29;20065;-85
2022/10/19 09:49:38;;;;;;;0.10;0.10;;;12.00;99.90;;;;;;4831265;29;20102;-87
2022/10/19 09:52:03;;;;;;;0.00;0.00;;;12.00;99.90;;;;;;4831733;29;20058;-85
2022/10/19 09:54:38;;;;;;;0.00;0.00;;;12.00;99.90;;;;;;4816143;29;20056;-85
2022/10/19 09:57:04;;;;;;;0.13;0.03;;;12.00;99.90;;;;;;4831464;29;20133;-86
2022/10/19 09:59:34;;;;;;;0.00;0.00;;;12.00;99.90;;;;;;4816034;29;20049;-86
2022/10/19 10:02:17;;;;;;;0.25;0.25;;;12.00;99.90;;;;;;4831043;29;20467;-86
2022/10/19 10:05:06;;;;;;;0.17;0.10;;;12.00;99.90;;;;;;4830555;29;20117;-86
2022/10/19 10:07:39;;;;;;;0.00;0.00;;;12.10;99.90;;;;;;4846250;29;20048;-85
2022/10/19 10:10:23;;;;;;;0.00;0.00;;;12.20;99.90;;;;;;4846758;29;20048;-92
2022/10/19 10:12:51;;;;;;;0.00;0.00;;;12.20;99.90;;;;;;4832085;29;20500;-93
2022/10/19 10:15:22;;;;;;;0.00;0.00;;;12.20;99.90;;;;;;4831824;29;20095;-87
2022/10/19 10:17:48;;;;;;;0.00;0.00;;;12.20;99.90;;;;;;4830555;29;20054;-87
2022/10/19 10:20:31;;;;;;;0.20;0.10;;;12.30;99.90;;;;;;4831564;29;20056;-87
2022/10/19 10:23:05;;;;;;;0.00;0.00;;;12.20;99.90;;;;;;4831555;29;20501;-88
2022/10/19 10:25:35;;;;;;;0.00;0.00;;;12.30;99.90;;;;;;4830773;29;20428;-87
2022/10/19 10:28:16;;;;;;;1.17;0.10;;;11.20;99.90;;;;;;4831026;29;20068;-86
2022/10/19 10:30:54;;;;;;;0.00;0.00;;;12.30;99.90;;;;;;4846073;29;20063;-89
2022/10/19 10:33:31;;;;;;;0.00;0.00;;;12.30;99.90;;;;;;4846408;29;20049;-89
2022/10/19 10:36:09;;;;;;;0.00;0.00;;;12.30;99.90;;;;;;4831278;29;20050;-89
2022/10/19 10:38:44;;;;;;;0.00;0.00;;;12.30;99.90;;;;;;4829737;29;20065;-89
2022/10/19 10:41:19;;;;;;;0.00;0.00;;;12.30;99.90;;;;;;4832112;29;20049;-89
2022/10/19 10:43:58;;;;;;;0.00;0.00;;;12.40;99.90;;;;;;4830238;29;20485;-89
2022/10/19 10:46:28;;;;;;;0.00;0.00;;;12.40;99.90;;;;;;4846117;29;20512;-88
2022/10/19 10:49:21;;;;;;;0.28;0.00;;;12.40;99.90;;;;;;4829841;29;20106;-91
2022/10/19 10:52:09;;;;;;;0.10;0.10;;;12.40;99.90;;;;;;4846597;29;20064;-91
2022/10/19 10:54:59;;;;;;;0.00;0.00;;;12.50;99.90;;;;;;4832229;29;20053;-89
2022/10/19 10:57:31;;;;;;;0.05;0.00;;;12.60;99.90;;;;;;4831221;29;20053;-89
2022/10/19 11:00:31;;;;;;;0.00;0.00;;;12.60;99.90;;;;;;4831113;29;20090;-90
2022/10/19 11:03:16;;;;;;;0.00;0.00;;;11.70;99.90;;;;;;4830620;29;20056;-90
2022/10/19 11:05:55;;;;;;;0.00;0.00;;;12.70;99.90;;;;;;4845893;29;20049;-90
2022/10/19 11:08:55;;;;;;;;;;;;;;;;;;;;;
2022/10/19 11:14:29;;;;;;;0.20;0.10;;;12.70;99.90;;;;;;4845695;29;20053;-90
2022/10/19 11:17:16;;;;;;;0.00;0.00;;;12.80;99.90;;;;;;4829917;29;20417;-89
2022/10/19 11:19:52;;;;;;;0.00;0.00;;;13.00;99.90;;;;;;4830418;29;20485;-89
2022/10/19 11:26:42;;;;;;;0.47;0.03;;;13.50;99.90;;;;;;4804440;29;20088;-91
2022/10/19 11:30:09;;;;;;;0.25;0.25;;;13.60;99.90;;;;;;4845495;29;20641;-84
2022/10/19 11:32:53;;;;;;;0.10;0.10;;;12.90;99.90;;;;;;4774507;29;20067;-93
2022/10/19 11:35:54;;;;;;;;;;;;;;;;;;;;;
2022/10/19 11:38:52;;;;;;;0.57;0.55;;;13.40;99.90;;;;;;4837490;29;20063;-90
2022/10/19 11:41:21;;;;;;;0.10;0.10;;;13.30;99.90;;;;;;4830299;29;20568;-90
2022/10/19 11:44:02;;;;;;;0.00;0.00;;;13.30;99.90;;;;;;4844695;29;20493;-90
2022/10/19 11:47:04;;;;;;;0.00;0.00;;;13.30;99.90;;;;;;4830377;29;20195;-89
2022/10/19 11:49:52;;;;;;;0.00;0.00;;;13.20;99.90;;;;;;4830549;29;20057;-90
2022/10/19 11:52:45;;;;;;;0.00;0.00;;;13.50;99.90;;;;;;4830621;29;20085;-90
2022/10/19 11:55:29;;;;;;;0.00;0.00;;;13.60;99.90;;;;;;4830047;29;20468;-90
2022/10/19 11:58:05;;;;;;;0.00;0.00;;;13.50;99.90;;;;;;4830558;29;20378;-90
2022/10/19 12:00:53;;;;;;;0.00;0.00;;;13.40;99.90;;;;;;4845627;29;20056;-90
2022/10/19 12:03:43;;;;;;;0.00;0.00;;;13.30;99.90;;;;;;4829988;29;20458;-90
2022/10/19 12:06:41;;;;;;;0.00;0.00;;;13.20;99.90;;;;;;4830127;29;20416;-90
2022/10/19 12:09:26;;;;;;;0.10;0.10;;;12.50;99.90;;;;;;4830684;29;20509;-90
2022/10/19 12:12:03;;;;;;;0.10;0.10;;;13.10;99.90;;;;;;4829846;29;20141;-90
2022/10/19 12:14:37;;;;;;;0.00;0.00;;;13.20;99.90;;;;;;4830039;29;20132;-90
2022/10/19 12:17:27;;;;;;;;;;;;;;;;;;;;;
2022/10/19 12:20:07;;;;;;;0.00;0.00;;;13.00;99.90;;;;;;4844101;29;20056;-91
2022/10/19 12:23:21;;;;;;;;;;;;;;;;;;;;;
2022/10/19 12:25:56;;;;;;;0.00;0.00;;;13.00;99.90;;;;;;4846642;29;20054;-91
2022/10/19 12:28:52;;;;;;;0.00;0.00;;;12.90;99.90;;;;;;4844584;29;20531;-91
2022/10/19 12:31:33;;;;;;;;;;;;;;;;;;;;;
2022/10/19 12:34:37;;;;;;;0.00;0.00;;;12.90;99.90;;;;;;4844422;29;20120;-91
2022/10/19 12:37:46;;;;;;;0.00;0.00;;;13.00;99.90;;;;;;4829332;29;20072;-90
2022/10/19 12:40:33;;;;;;;0.00;0.00;;;12.20;99.90;;;;;;4838213;29;20084;-90
2022/10/19 12:43:04;;;;;;;;;;;12.60;99.90;;;;;;4830802;29;20132;-92
2022/10/19 12:45:37;;;;;;;0.70;0.70;;;13.30;99.90;;;;;;4830274;29;19931;-91
2022/10/19 12:48:17;;;;;;;0.00;0.00;;;13.50;99.90;;;;;;4829013;29;20057;-91
2022/10/19 12:50:58;;;;;;;0.00;0.00;;;13.40;99.90;;;;;;4829340;29;20194;-92
2022/10/19 12:53:29;;;;;;;0.00;0.00;;;14.50;99.90;;;;;;4829275;29;20049;-92
2022/10/19 12:56:08;;;;;;;0.00;0.00;;;14.50;99.90;;;;;;4843938;29;20050;-92
2022/10/19 12:59:02;;;;;;;0.13;0.00;;;14.80;99.90;;;;;;4829348;29;20058;-93
2022/10/19 13:01:56;;;;;;;0.00;0.00;;;14.80;99.90;;;;;;4843727;29;20405;-91
2022/10/19 13:04:34;;;;;;;;;;;;;;;;;;;;;
2022/10/19 13:07:15;;;;;;;0.00;0.00;;;14.40;99.90;;;;;;4847318;29;20056;-91
2022/10/19 13:10:07;;;;;;;0.00;0.00;;;14.50;99.90;;;;;;4818699;29;20206;-93
2022/10/19 13:12:44;;;;;;;0.00;0.00;;;14.70;99.90;;;;;;4832229;29;20053;-93
2022/10/19 13:15:34;;;;;;;0.98;0.22;;;14.10;99.90;;;;;;4847618;29;20152;-92
2022/10/19 13:18:01;;;;;;;;;;;13.90;99.90;;;;;;4832247;29;20111;-93
2022/10/19 13:20:27;;;;;;;0.10;0.10;;;14.10;99.90;;;;;;4832469;29;19926;-93
2022/10/19 13:22:59;;;;;;;0.00;0.00;;;14.10;99.90;;;;;;4832664;29;20129;-94
2022/10/19 13:25:28;;;;;;;0.32;0.32;;;14.20;99.90;;;;;;4849566;29;20085;-87
2022/10/19 13:28:04;;;;;;;0.20;0.13;;;14.30;99.90;;;;;;4849014;29;20045;-91
2022/10/19 13:33:42;;;;;;;0.08;0.05;;;14.60;99.90;;;;;;4847997;29;20382;-94
2022/10/19 13:36:16;;;;;;;;;;;14.80;99.90;;;;;;4792247;29;20043;-94
2022/10/19 13:38:49;;;;;;;0.10;0.10;;;14.70;99.90;;;;;;4840992;29;19924;-94
2022/10/19 13:41:43;;;;;;;0.10;0.10;;;14.50;99.90;;;;;;4832198;29;20052;-94
2022/10/19 13:44:13;;;;;;;0.35;0.22;;;14.50;99.90;;;;;;4833794;29;20049;-96
2022/10/19 13:47:00;;;;;;;0.20;0.20;;;14.40;99.90;;;;;;4832424;29;20560;-96
2022/10/19 13:49:36;;;;;;;0.30;0.30;;;13.90;99.90;;;;;;4847737;29;20102;-95
2022/10/19 13:52:30;;;;;;;0.40;0.40;;;14.60;99.90;;;;;;4832592;29;20326;-94
2022/10/19 13:55:22;;;;;;;1.08;0.20;;;14.80;99.90;;;;;;4832200;29;20512;-95
2022/10/19 13:57:53;;;;;;;0.17;0.17;;;15.20;99.90;;;;;;4847546;29;20048;-95
2022/10/19 14:00:31;;;;;;;0.20;0.20;;;15.30;99.90;;;;;;4847407;29;20053;-94
2022/10/19 14:03:19;;;;;;;0.40;0.28;;;15.40;99.90;;;;;;4846561;29;20045;-94
2022/10/19 14:06:00;;;;;;;0.20;0.20;;;15.30;99.90;;;;;;4850038;29;20093;-94
2022/10/19 14:08:43;;;;;;;0.20;0.20;;;15.40;99.90;;;;;;4848339;29;20081;-94
2022/10/19 14:11:16;;;;;;;0.75;0.30;;;15.40;99.90;;;;;;4852318;29;20088;-93
2022/10/19 14:13:42;;;;;;;0.40;0.30;;;15.40;99.90;;;;;;4848914;29;20113;-93
2022/10/19 14:16:21;;;;;;;0.13;0.13;;;15.30;99.90;;;;;;4833605;29;20055;-94
2022/10/19 14:18:54;;;;;;;0.45;0.40;;;15.20;99.90;;;;;;4849072;29;20041;-94
2022/10/19 14:21:32;;;;;;;0.57;0.57;;;15.20;99.90;;;;;;4834474;29;20041;-94
2022/10/19 14:23:58;;;;;;;1.23;0.60;;;15.30;99.90;;;;;;4833345;29;20481;-96
2022/10/19 14:26:29;;;;;;;0.47;0.47;;;15.30;99.90;;;;;;4832886;29;20071;-95
2022/10/19 14:28:58;;;;;;;0.40;0.40;;;16.10;99.90;;;;;;4847173;29;20105;-95
2022/10/19 14:31:32;;;;;;;0.20;0.20;;;15.40;99.90;;;;;;4832330;29;20092;-94
2022/10/19 14:34:02;;;;;;;0.57;0.28;;;15.40;99.90;;;;;;4847181;29;20045;-94
2022/10/19 14:36:36;;;;;;;0.40;0.40;;;15.40;99.90;;;;;;4833355;29;20045;-96